Time;durP1;ratioP1;P1;durP2;ratioP2;P2;SDS_P1;SDS_P2;PMS_P1;PMS_P2;Temp;Humidity;BMP_temperature;BMP_pressure;BME280_temperature;BME280_humidity;BME280_pressure;Samples;Min_cycle;Max_cycle;Signal;HPM_P1;HPM_P2
2021/06/30 00:00:43;;;;;;;2.80;2.70;;;23.00;43.60;;;;;;4833115;29;20787;-82
2021/06/30 00:03:09;;;;;;;2.60;2.40;;;23.00;43.60;;;;;;4833553;29;20428;-82
2021/06/30 00:05:35;;;;;;;2.80;2.60;;;23.00;43.60;;;;;;4833690;29;20203;-82
2021/06/30 00:08:02;;;;;;;2.47;2.37;;;23.00;43.60;;;;;;4834257;29;20609;-83
2021/06/30 00:10:27;;;;;;;2.30;2.20;;;23.00;43.60;;;;;;4833529;29;20428;-82
2021/06/30 00:12:56;;;;;;;2.80;2.60;;;23.00;43.50;;;;;;4833983;29;20416;-82
2021/06/30 00:15:25;;;;;;;2.97;2.77;;;23.00;43.50;;;;;;4832841;29;20203;-81
2021/06/30 00:17:51;;;;;;;2.70;2.50;;;23.00;43.60;;;;;;4833938;29;20424;-81
2021/06/30 00:20:17;;;;;;;2.90;2.70;;;23.00;43.50;;;;;;4833040;29;20480;-82
2021/06/30 00:22:43;;;;;;;2.57;2.37;;;23.00;43.50;;;;;;4833570;29;20198;-81
2021/06/30 00:25:10;;;;;;;2.23;2.13;;;23.00;43.60;;;;;;4832963;29;20448;-82
2021/06/30 00:27:36;;;;;;;2.23;2.13;;;22.90;43.40;;;;;;4833670;29;20187;-81
2021/06/30 00:30:03;;;;;;;2.33;2.23;;;23.00;43.50;;;;;;4833097;29;20950;-81
2021/06/30 00:32:29;;;;;;;2.30;2.20;;;23.00;43.50;;;;;;4833185;29;20199;-81
2021/06/30 00:34:56;;;;;;;2.20;2.10;;;23.00;43.50;;;;;;4833080;29;20804;-82
2021/06/30 00:37:22;;;;;;;2.50;2.40;;;23.00;43.50;;;;;;4849350;29;20250;-82
2021/06/30 00:39:49;;;;;;;2.70;2.60;;;23.00;43.50;;;;;;4833084;29;20460;-81
2021/06/30 00:42:14;;;;;;;2.70;2.60;;;23.00;43.40;;;;;;4832701;29;20424;-82
2021/06/30 00:44:44;;;;;;;2.47;2.30;;;22.90;43.30;;;;;;4849164;29;20960;-82
2021/06/30 00:47:10;;;;;;;3.17;2.73;;;22.90;43.30;;;;;;4831508;29;20207;-82
2021/06/30 00:49:38;;;;;;;2.40;2.30;;;22.90;43.20;;;;;;4830930;29;20585;-82
2021/06/30 00:52:04;;;;;;;2.50;2.40;;;22.90;43.30;;;;;;4831745;29;20231;-82
2021/06/30 00:54:30;;;;;;;2.47;2.23;;;23.00;43.40;;;;;;4846804;29;20874;-82
2021/06/30 00:56:56;;;;;;;2.87;2.70;;;22.90;43.30;;;;;;4847369;29;20487;-82
2021/06/30 00:59:22;;;;;;;2.40;2.30;;;23.00;43.30;;;;;;4831660;29;20205;-82
2021/06/30 01:01:48;;;;;;;2.50;2.40;;;23.00;43.30;;;;;;4847562;29;20416;-82
2021/06/30 01:04:14;;;;;;;2.63;2.43;;;22.90;43.10;;;;;;4847668;29;20179;-82
2021/06/30 01:06:39;;;;;;;2.33;2.20;;;22.90;43.10;;;;;;4830736;29;20444;-82
2021/06/30 01:09:06;;;;;;;2.70;2.60;;;22.90;43.20;;;;;;4831072;29;20286;-82
2021/06/30 01:11:41;;;;;;;2.73;2.60;;;22.90;43.10;;;;;;4846449;29;20521;-81
2021/06/30 01:14:09;;;;;;;2.40;2.30;;;22.90;43.10;;;;;;4846196;29;20924;-81
2021/06/30 01:16:38;;;;;;;2.30;2.20;;;22.90;43.10;;;;;;4828802;29;20483;-82
2021/06/30 01:19:04;;;;;;;2.50;2.40;;;22.90;43.10;;;;;;4829162;29;20433;-82
2021/06/30 01:21:30;;;;;;;2.47;2.37;;;22.90;43.10;;;;;;4829440;29;20424;-82
2021/06/30 01:23:56;;;;;;;2.13;2.00;;;22.90;43.00;;;;;;4845548;29;20980;-82
2021/06/30 01:26:24;;;;;;;3.90;2.53;;;22.90;43.10;;;;;;4828909;29;20204;-82
2021/06/30 01:28:50;;;;;;;2.33;2.23;;;22.90;43.10;;;;;;4829794;29;20853;-82
2021/06/30 01:31:16;;;;;;;2.20;2.10;;;22.90;43.10;;;;;;4845718;29;20484;-82
2021/06/30 01:33:44;;;;;;;2.30;2.20;;;22.90;43.00;;;;;;4848144;29;20185;-82
2021/06/30 01:36:12;;;;;;;2.40;2.30;;;22.90;43.00;;;;;;4830519;29;20238;-81
2021/06/30 01:38:40;;;;;;;2.80;2.70;;;22.90;43.10;;;;;;4847169;29;21104;-82
2021/06/30 01:41:07;;;;;;;2.47;2.30;;;22.90;43.10;;;;;;4829732;29;20429;-81
2021/06/30 01:43:33;;;;;;;2.70;2.50;;;22.90;43.00;;;;;;4845082;29;20424;-81
2021/06/30 01:45:59;;;;;;;2.47;2.37;;;22.90;42.90;;;;;;4828753;29;20512;-81
2021/06/30 01:48:25;;;;;;;2.63;2.53;;;22.90;43.10;;;;;;4830049;29;20201;-81
2021/06/30 01:50:53;;;;;;;2.53;2.43;;;22.90;42.90;;;;;;4830183;29;20230;-82
2021/06/30 01:53:19;;;;;;;2.50;2.40;;;22.90;42.90;;;;;;4829516;29;20432;-81
2021/06/30 01:55:46;;;;;;;2.53;2.43;;;22.90;42.90;;;;;;4845386;29;20472;-81
2021/06/30 01:58:15;;;;;;;2.60;2.50;;;22.90;42.90;;;;;;4845415;29;20467;-81
2021/06/30 02:00:40;;;;;;;2.57;2.47;;;22.90;42.90;;;;;;4829473;29;20424;-81
2021/06/30 02:03:06;;;;;;;2.20;2.10;;;22.90;42.90;;;;;;4828993;29;20805;-82
2021/06/30 02:05:31;;;;;;;2.17;2.07;;;22.90;42.90;;;;;;4829676;29;20746;-82
2021/06/30 02:08:01;;;;;;;2.50;2.40;;;22.90;42.90;;;;;;4829862;29;20661;-82
2021/06/30 02:10:28;;;;;;;2.13;2.03;;;22.90;42.90;;;;;;4845591;29;20188;-81
2021/06/30 02:12:55;;;;;;;2.60;2.50;;;22.90;42.90;;;;;;4829430;29;20489;-81
2021/06/30 02:15:26;;;;;;;2.20;2.10;;;22.90;42.90;;;;;;4845671;29;20436;-81
2021/06/30 02:17:53;;;;;;;2.30;2.17;;;22.90;42.90;;;;;;4845773;29;20520;-81
2021/06/30 02:20:27;;;;;;;2.50;2.40;;;22.90;42.90;;;;;;4829977;29;20427;-82
2021/06/30 02:22:56;;;;;;;2.40;2.20;;;22.90;42.90;;;;;;4845235;29;20412;-82
2021/06/30 02:25:28;;;;;;;2.60;2.50;;;22.90;42.90;;;;;;4845773;29;20809;-82
2021/06/30 02:27:55;;;;;;;2.30;2.20;;;22.90;42.90;;;;;;4845931;29;20425;-82
2021/06/30 02:30:24;;;;;;;2.50;2.40;;;22.90;42.80;;;;;;4829277;29;20448;-82
2021/06/30 02:32:51;;;;;;;2.57;2.47;;;22.90;42.80;;;;;;4828584;29;20424;-81
2021/06/30 02:35:20;;;;;;;2.13;2.03;;;22.90;42.90;;;;;;4828895;29;20821;-82
2021/06/30 02:37:48;;;;;;;2.50;2.40;;;22.90;42.90;;;;;;4846010;29;20459;-81
2021/06/30 02:40:16;;;;;;;2.40;2.30;;;22.90;42.90;;;;;;4829555;29;20427;-82
2021/06/30 02:42:42;;;;;;;2.23;2.13;;;22.80;42.80;;;;;;4846242;29;20424;-81
2021/06/30 02:45:11;;;;;;;2.40;2.30;;;22.90;42.90;;;;;;4830026;29;22234;-81
2021/06/30 02:47:38;;;;;;;2.73;2.57;;;22.80;43.50;;;;;;4845962;29;20432;-82
2021/06/30 02:50:06;;;;;;;2.20;2.10;;;22.80;42.80;;;;;;4829854;29;20907;-81
2021/06/30 02:52:32;;;;;;;2.50;2.40;;;22.80;43.00;;;;;;4828871;29;20895;-82
2021/06/30 02:54:58;;;;;;;2.33;2.23;;;22.80;42.80;;;;;;4829461;29;20432;-81
2021/06/30 02:57:24;;;;;;;2.53;2.40;;;22.80;42.80;;;;;;4829347;29;20476;-81
2021/06/30 02:59:49;;;;;;;2.20;2.10;;;22.80;42.80;;;;;;4845771;29;20176;-81
2021/06/30 03:02:15;;;;;;;2.20;2.10;;;22.80;42.80;;;;;;4845837;29;20558;-81
2021/06/30 03:04:40;;;;;;;2.00;2.00;;;22.90;42.80;;;;;;4846203;29;20687;-81
2021/06/30 03:07:06;;;;;;;2.30;2.10;;;22.80;42.80;;;;;;4846322;29;20218;-81
2021/06/30 03:09:31;;;;;;;2.37;2.27;;;22.80;42.80;;;;;;4830374;29;20275;-81
2021/06/30 03:11:57;;;;;;;2.50;2.40;;;22.80;42.80;;;;;;4829962;29;20190;-81
2021/06/30 03:14:23;;;;;;;2.37;2.27;;;22.80;42.80;;;;;;4845196;29;20278;-80
2021/06/30 03:16:48;;;;;;;2.50;2.40;;;22.80;42.80;;;;;;4844885;29;20207;-81
2021/06/30 03:19:17;;;;;;;2.50;2.40;;;22.80;42.80;;;;;;4829700;29;20614;-81
2021/06/30 03:21:42;;;;;;;2.20;2.20;;;22.80;42.80;;;;;;4845779;29;20678;-82
2021/06/30 03:24:10;;;;;;;2.50;2.40;;;22.80;42.70;;;;;;4845509;29;20461;-82
2021/06/30 03:26:41;;;;;;;2.17;2.07;;;22.80;42.70;;;;;;4828799;29;20230;-82
2021/06/30 03:29:11;;;;;;;2.50;2.40;;;22.80;42.80;;;;;;4828881;29;20474;-82
2021/06/30 03:31:37;;;;;;;2.27;2.17;;;22.80;42.70;;;;;;4829628;29;20764;-82
2021/06/30 03:34:02;;;;;;;2.83;2.27;;;22.80;42.80;;;;;;4829505;29;20428;-81
2021/06/30 03:36:28;;;;;;;3.30;2.53;;;22.80;42.80;;;;;;4828781;29;20255;-83
2021/06/30 03:38:54;;;;;;;2.50;2.40;;;22.80;42.80;;;;;;4828000;29;20187;-82
2021/06/30 03:41:20;;;;;;;2.20;2.20;;;22.80;43.50;;;;;;4827934;29;20190;-82
2021/06/30 03:43:45;;;;;;;1.83;1.83;;;22.80;42.70;;;;;;4829486;29;20189;-82
2021/06/30 03:46:11;;;;;;;2.47;2.37;;;22.80;42.80;;;;;;4828312;29;20203;-82
2021/06/30 03:48:38;;;;;;;2.40;2.30;;;22.80;42.80;;;;;;4829021;29;20183;-82
2021/06/30 03:51:04;;;;;;;2.70;2.60;;;22.80;42.80;;;;;;4848710;29;20432;-82
2021/06/30 03:53:30;;;;;;;2.20;2.10;;;22.80;42.80;;;;;;4832860;29;21014;-81
2021/06/30 03:55:55;;;;;;;2.23;2.13;;;22.80;42.70;;;;;;4848756;29;20504;-82
2021/06/30 03:58:21;;;;;;;2.67;2.57;;;22.80;42.80;;;;;;4832538;29;20203;-81
2021/06/30 04:00:47;;;;;;;2.50;2.40;;;22.80;42.80;;;;;;4849548;29;20206;-81
2021/06/30 04:03:13;;;;;;;2.20;2.20;;;22.80;42.80;;;;;;4848457;29;20179;-82
2021/06/30 04:05:38;;;;;;;2.33;2.23;;;22.80;42.80;;;;;;4848439;29;20226;-81
2021/06/30 04:08:09;;;;;;;2.63;2.53;;;22.80;42.80;;;;;;4848283;29;20417;-80
2021/06/30 04:10:35;;;;;;;2.57;2.47;;;22.80;42.80;;;;;;4847407;29;20591;-80
2021/06/30 04:13:00;;;;;;;2.37;2.27;;;22.80;42.80;;;;;;4831219;29;20480;-80
2021/06/30 04:15:26;;;;;;;2.57;2.47;;;22.80;42.80;;;;;;4830108;29;20204;-80
2021/06/30 04:17:52;;;;;;;2.50;2.40;;;22.80;42.80;;;;;;4829934;29;20198;-81
2021/06/30 04:20:18;;;;;;;2.80;2.70;;;22.80;42.80;;;;;;4829805;29;20183;-81
2021/06/30 04:22:43;;;;;;;2.80;2.70;;;22.80;42.90;;;;;;4830298;29;20431;-80
2021/06/30 04:25:09;;;;;;;4.30;3.00;;;22.80;43.00;;;;;;4829387;29;20207;-80
2021/06/30 04:27:35;;;;;;;3.83;2.80;;;22.80;43.00;;;;;;4846139;29;20179;-81
2021/06/30 04:30:12;;;;;;;5.00;3.03;;;22.80;43.10;;;;;;4830109;29;20845;-80
2021/06/30 04:32:37;;;;;;;2.63;2.53;;;22.80;43.10;;;;;;4844368;29;20182;-82
2021/06/30 04:35:05;;;;;;;2.80;2.70;;;22.80;43.10;;;;;;4827588;29;20920;-80
2021/06/30 04:37:30;;;;;;;2.60;2.50;;;22.80;43.30;;;;;;4826747;29;20671;-80
2021/06/30 04:39:56;;;;;;;3.10;2.90;;;22.80;43.40;;;;;;4843343;29;20463;-80
2021/06/30 04:42:25;;;;;;;2.90;2.80;;;22.80;43.50;;;;;;4826399;29;20176;-80
2021/06/30 04:44:50;;;;;;;3.23;2.40;;;22.80;43.60;;;;;;4826364;29;20179;-80
2021/06/30 04:47:16;;;;;;;2.83;2.70;;;22.80;43.50;;;;;;4829348;29;20448;-81
2021/06/30 04:49:41;;;;;;;2.53;2.43;;;22.80;43.40;;;;;;4828185;29;20195;-80
2021/06/30 04:52:07;;;;;;;6.33;2.70;;;22.80;43.30;;;;;;4827169;29;20188;-80
2021/06/30 04:54:35;;;;;;;3.00;2.80;;;22.80;43.30;;;;;;4825645;29;20236;-80
2021/06/30 04:57:20;;;;;;;3.27;2.63;;;22.80;43.20;;;;;;4810359;29;20298;-81
2021/06/30 05:17:55;;;;;;;2.73;2.53;;;22.80;42.90;;;;;;4790836;30;20470;-83
2021/06/30 06:45:35;;;;;;;2.60;2.40;;;22.40;37.60;;;;;;4804374;29;20497;-83
2021/06/30 06:48:01;;;;;;;2.90;2.70;;;22.40;38.00;;;;;;4820995;29;20447;-82
2021/06/30 06:51:25;;;;;;;2.77;2.67;;;22.40;38.10;;;;;;4799435;29;20441;-83
2021/06/30 06:57:13;;;;;;;2.30;2.20;;;22.30;37.10;;;;;;4824846;29;20476;-83
2021/06/30 06:59:52;;;;;;;2.30;2.20;;;22.20;36.20;;;;;;4826598;29;20502;-84
2021/06/30 07:03:02;;;;;;;2.20;2.00;;;22.20;35.80;;;;;;4813674;29;20457;-84
2021/06/30 07:05:31;;;;;;;2.27;2.17;;;22.20;35.30;;;;;;4804267;29;20453;-82
2021/06/30 07:08:47;;;;;;;2.40;2.30;;;22.20;35.40;;;;;;4811327;29;20426;-82
2021/06/30 07:12:02;;;;;;;2.07;1.97;;;22.20;35.10;;;;;;4800914;29;20437;-82
2021/06/30 07:15:37;;;;;;;2.00;1.90;;;22.20;35.10;;;;;;4769681;29;20421;-81
2021/06/30 07:18:25;;;;;;;2.10;2.00;;;22.10;34.50;;;;;;4803018;29;20606;-81
2021/06/30 07:21:13;;;;;;;2.50;2.40;;;22.10;34.50;;;;;;4791287;29;20925;-81
2021/06/30 07:23:40;;;;;;;1.97;1.97;;;22.10;34.40;;;;;;4791105;29;20933;-81
2021/06/30 07:26:09;;;;;;;2.37;2.23;;;22.10;34.40;;;;;;4791183;29;20438;-81
2021/06/30 07:28:35;;;;;;;2.10;2.00;;;22.10;34.10;;;;;;4812567;29;20429;-82
2021/06/30 07:31:03;;;;;;;1.87;1.77;;;22.10;34.00;;;;;;4828503;29;20915;-82
2021/06/30 07:33:29;;;;;;;2.10;1.97;;;22.10;34.10;;;;;;4829026;29;20266;-81
2021/06/30 07:35:54;;;;;;;1.93;1.83;;;22.10;34.30;;;;;;4843807;29;21015;-80
2021/06/30 07:38:23;;;;;;;1.93;1.83;;;22.10;34.10;;;;;;4827161;29;20671;-81
2021/06/30 07:40:49;;;;;;;2.00;2.00;;;22.00;34.20;;;;;;4843226;29;20183;-81
2021/06/30 07:43:15;;;;;;;2.03;1.93;;;22.00;34.40;;;;;;4826986;29;20422;-80
2021/06/30 07:45:40;;;;;;;2.03;1.93;;;22.00;34.20;;;;;;4842901;29;20239;-78
2021/06/30 07:48:07;;;;;;;2.37;2.30;;;22.00;34.60;;;;;;4827221;29;20444;-80
2021/06/30 07:50:32;;;;;;;2.37;2.27;;;22.00;34.70;;;;;;4843332;29;20179;-80
2021/06/30 07:53:03;;;;;;;2.10;2.00;;;22.00;34.70;;;;;;4836695;29;20936;-80
2021/06/30 07:55:29;;;;;;;1.73;1.73;;;22.00;35.00;;;;;;4826232;29;20222;-80
2021/06/30 07:57:55;;;;;;;1.90;1.90;;;22.00;34.80;;;;;;4843378;29;20460;-83
2021/06/30 08:00:20;;;;;;;2.30;1.97;;;22.00;34.50;;;;;;4845092;29;20661;-82
2021/06/30 08:02:46;;;;;;;1.90;1.80;;;22.00;35.00;;;;;;4827748;29;20554;-81
2021/06/30 08:05:12;;;;;;;2.10;1.90;;;22.00;34.50;;;;;;4843679;29;20230;-81
2021/06/30 08:07:37;;;;;;;2.00;1.90;;;22.00;34.90;;;;;;4842833;29;20184;-80
2021/06/30 08:10:06;;;;;;;2.00;1.90;;;22.00;35.00;;;;;;4841706;29;20187;-80
2021/06/30 08:12:32;;;;;;;2.00;1.90;;;22.00;35.00;;;;;;4842651;29;20188;-82
2021/06/30 08:14:57;;;;;;;5.43;2.20;;;22.10;35.00;;;;;;4843406;29;20435;-80
2021/06/30 08:17:23;;;;;;;2.17;2.07;;;22.10;35.00;;;;;;4842841;29;20219;-79
2021/06/30 08:19:48;;;;;;;2.17;2.07;;;22.10;34.90;;;;;;4844951;29;20184;-80
2021/06/30 08:22:14;;;;;;;2.30;2.20;;;22.10;35.10;;;;;;4845979;29;20550;-80
2021/06/30 08:24:42;;;;;;;1.87;1.80;;;22.10;35.90;;;;;;4845500;29;20187;-80
2021/06/30 08:27:08;;;;;;;2.20;2.10;;;22.10;35.80;;;;;;4845860;29;20226;-80
2021/06/30 08:29:36;;;;;;;2.20;2.10;;;22.10;35.40;;;;;;4846966;29;20428;-83
2021/06/30 08:32:02;;;;;;;2.30;2.20;;;22.10;35.60;;;;;;4849656;29;20435;-82
2021/06/30 08:34:28;;;;;;;2.30;2.20;;;22.10;35.60;;;;;;4832618;29;20524;-82
2021/06/30 08:37:00;;;;;;;2.00;2.00;;;22.10;35.70;;;;;;4847924;29;20903;-82
2021/06/30 08:39:27;;;;;;;2.40;2.30;;;22.10;35.30;;;;;;4831654;29;20187;-81
2021/06/30 08:41:52;;;;;;;2.50;2.40;;;22.00;35.30;;;;;;4847908;29;20421;-81
2021/06/30 08:44:18;;;;;;;1.93;1.80;;;22.00;35.20;;;;;;4832269;29;20420;-82
2021/06/30 08:47:00;;;;;;;2.07;2.07;;;22.00;35.40;;;;;;4851455;29;20195;-82
2021/06/30 08:49:27;;;;;;;1.90;1.80;;;22.00;35.10;;;;;;4837292;29;20188;-82
2021/06/30 08:51:54;;;;;;;2.30;1.80;;;22.00;35.00;;;;;;4851812;29;20423;-83
2021/06/30 08:54:29;;;;;;;2.30;2.20;;;22.00;35.40;;;;;;4833396;29;20424;-83
2021/06/30 08:56:55;;;;;;;1.90;1.90;;;22.10;35.90;;;;;;4834903;29;20467;-83
2021/06/30 08:59:21;;;;;;;2.50;2.40;;;22.10;36.10;;;;;;4852131;29;20428;-84
2021/06/30 09:01:47;;;;;;;3.13;3.03;;;22.00;35.50;;;;;;4848104;29;20421;-82
2021/06/30 09:04:13;;;;;;;3.50;2.83;;;22.10;36.80;;;;;;4849278;29;20938;-83
2021/06/30 09:06:42;;;;;;;2.70;2.50;;;22.00;36.00;;;;;;4832039;29;20294;-83
2021/06/30 09:09:15;;;;;;;2.30;2.30;;;22.00;36.20;;;;;;4832250;29;20523;-82
2021/06/30 09:11:43;;;;;;;2.40;2.30;;;22.00;36.30;;;;;;4848500;29;20424;-82
2021/06/30 09:14:20;;;;;;;3.27;2.97;;;22.10;36.50;;;;;;4847940;29;20421;-83
2021/06/30 09:20:01;;;;;;;2.10;2.00;;;22.00;36.50;;;;;;4847151;29;20513;-82
2021/06/30 09:22:39;;;;;;;2.67;2.57;;;22.00;36.30;;;;;;4846703;29;20408;-81
2021/06/30 09:25:05;;;;;;;2.17;2.10;;;22.00;36.10;;;;;;4830222;29;20428;-82
2021/06/30 09:27:44;;;;;;;2.10;2.00;;;22.00;35.70;;;;;;4830529;29;20428;-83
2021/06/30 09:30:15;;;;;;;2.60;2.43;;;22.00;35.90;;;;;;4831042;29;20451;-82
2021/06/30 09:33:04;;;;;;;2.57;2.23;;;22.00;36.10;;;;;;4831211;29;20494;-83
2021/06/30 09:35:35;;;;;;;2.40;2.30;;;22.00;36.00;;;;;;4830291;29;20539;-81
2021/06/30 09:38:26;;;;;;;2.17;2.10;;;22.00;36.00;;;;;;4846708;29;20556;-83
2021/06/30 09:40:51;;;;;;;2.20;2.10;;;22.10;35.70;;;;;;4846890;29;20469;-82
2021/06/30 09:43:33;;;;;;;2.37;2.17;;;22.00;35.40;;;;;;4846821;29;20431;-84
2021/06/30 09:46:01;;;;;;;2.10;2.00;;;22.10;35.60;;;;;;4812621;29;20212;-82
2021/06/30 09:48:33;;;;;;;2.10;2.00;;;22.10;35.50;;;;;;4812791;29;20948;-83
2021/06/30 09:51:02;;;;;;;2.40;2.23;;;22.10;35.10;;;;;;4812341;29;20425;-82
2021/06/30 09:53:37;;;;;;;1.80;1.80;;;22.10;35.10;;;;;;4812913;29;20444;-82
2021/06/30 09:56:35;;;;;;;2.33;2.23;;;22.10;35.10;;;;;;4813620;29;20472;-82
2021/06/30 09:59:13;;;;;;;2.37;2.20;;;22.10;35.20;;;;;;4836671;29;20967;-82
2021/06/30 10:01:39;;;;;;;1.67;1.67;;;22.10;35.40;;;;;;4830124;29;20428;-82
2021/06/30 10:04:06;;;;;;;1.80;1.80;;;22.10;35.80;;;;;;4847404;29;20431;-82
2021/06/30 10:06:36;;;;;;;2.50;1.90;;;22.10;35.70;;;;;;4832089;29;20491;-83
2021/06/30 10:09:06;;;;;;;1.60;1.60;;;22.00;35.30;;;;;;4849646;29;20435;-83
2021/06/30 10:11:53;;;;;;;1.70;1.70;;;22.00;35.70;;;;;;4833538;29;20871;-83
2021/06/30 10:14:19;;;;;;;2.07;2.00;;;22.10;35.60;;;;;;4850170;29;20812;-82
2021/06/30 10:16:45;;;;;;;3.13;2.00;;;22.10;35.50;;;;;;4832034;29;20467;-83
2021/06/30 10:19:11;;;;;;;1.30;1.30;;;22.10;35.20;;;;;;4833068;29;20194;-82
2021/06/30 10:21:37;;;;;;;1.80;1.70;;;22.10;35.30;;;;;;4831735;29;20424;-82
2021/06/30 10:24:02;;;;;;;1.40;1.40;;;22.10;35.00;;;;;;4832246;29;20521;-83
2021/06/30 10:26:28;;;;;;;3.47;1.80;;;22.10;35.20;;;;;;4836470;29;20218;-82
2021/06/30 10:28:59;;;;;;;1.90;1.80;;;22.10;34.60;;;;;;4833912;29;20566;-82
2021/06/30 10:31:37;;;;;;;1.83;1.73;;;22.10;34.90;;;;;;4850972;29;20236;-82
2021/06/30 10:34:02;;;;;;;1.70;1.70;;;22.10;35.10;;;;;;4831653;29;20818;-81
2021/06/30 10:36:54;;;;;;;1.67;1.67;;;22.10;34.60;;;;;;4848446;29;20463;-82
2021/06/30 10:39:35;;;;;;;1.83;1.73;;;22.10;35.00;;;;;;4832952;29;20180;-83
2021/06/30 10:42:20;;;;;;;1.87;1.87;;;22.10;34.60;;;;;;4848257;29;20499;-83
2021/06/30 10:44:54;;;;;;;2.00;2.00;;;22.10;34.50;;;;;;4846888;29;20431;-81
2021/06/30 10:47:30;;;;;;;2.23;2.13;;;22.10;34.30;;;;;;4833413;29;20451;-82
2021/06/30 10:50:32;;;;;;;2.47;2.37;;;22.20;33.90;;;;;;4832941;29;20514;-83
2021/06/30 10:53:04;;;;;;;3.53;2.10;;;22.20;33.90;;;;;;4848587;29;20767;-82
2021/06/30 10:55:36;;;;;;;2.83;2.73;;;22.20;33.90;;;;;;4848871;29;20445;-82
2021/06/30 10:58:24;;;;;;;2.30;2.20;;;22.20;33.60;;;;;;4832854;29;20475;-83
2021/06/30 11:01:00;;;;;;;5.20;2.67;;;22.20;33.70;;;;;;4846303;29;20420;-83
2021/06/30 11:03:31;;;;;;;2.00;1.90;;;22.20;33.20;;;;;;4846796;29;20787;-84
2021/06/30 11:06:21;;;;;;;2.20;2.10;;;22.10;33.70;;;;;;4830845;29;20440;-83
2021/06/30 11:08:53;;;;;;;2.60;2.50;;;22.10;33.90;;;;;;4829895;29;20516;-83
2021/06/30 11:11:28;;;;;;;2.20;2.10;;;22.20;34.20;;;;;;4846498;29;20499;-81
2021/06/30 11:14:14;;;;;;;2.63;2.47;;;22.10;34.10;;;;;;4830053;29;20495;-83
2021/06/30 11:16:40;;;;;;;2.17;2.10;;;22.10;33.10;;;;;;4846059;29;20472;-82
2021/06/30 11:19:18;;;;;;;2.37;2.27;;;22.00;34.00;;;;;;4829351;29;20859;-82
2021/06/30 11:21:50;;;;;;;2.20;2.20;;;22.10;34.20;;;;;;4829322;29;20176;-84
2021/06/30 11:24:35;;;;;;;2.30;2.20;;;22.10;34.30;;;;;;4828359;29;20508;-82
2021/06/30 11:27:13;;;;;;;2.20;2.10;;;22.10;33.60;;;;;;4828380;29;20468;-83
2021/06/30 11:29:42;;;;;;;2.00;2.00;;;22.00;33.80;;;;;;4829285;29;20460;-82
2021/06/30 11:32:42;;;;;;;3.33;2.20;;;22.10;34.00;;;;;;4828224;29;20480;-82
2021/06/30 11:35:19;;;;;;;2.70;2.60;;;22.00;34.00;;;;;;4844175;29;20416;-83
2021/06/30 11:37:46;;;;;;;2.57;2.47;;;22.10;33.80;;;;;;4827169;29;20558;-84
2021/06/30 11:42:49;;;;;;;2.40;2.40;;;22.10;34.00;;;;;;4842975;29;20508;-81
2021/06/30 11:45:18;;;;;;;2.57;2.37;;;22.10;34.20;;;;;;4842607;29;20682;-82
2021/06/30 11:47:46;;;;;;;2.40;2.30;;;22.10;34.40;;;;;;4826541;29;20487;-82
2021/06/30 11:50:17;;;;;;;2.50;2.40;;;22.10;34.60;;;;;;4827820;29;20436;-82
2021/06/30 11:52:43;;;;;;;2.50;2.40;;;22.10;34.60;;;;;;4831685;29;20799;-83
2021/06/30 11:55:09;;;;;;;2.67;2.57;;;22.10;34.40;;;;;;4831245;29;20754;-84
2021/06/30 11:57:57;;;;;;;4.40;2.80;;;22.00;34.50;;;;;;4833346;29;20460;-82
2021/06/30 12:00:25;;;;;;;2.77;2.50;;;22.10;34.50;;;;;;4833648;29;20537;-85
2021/06/30 12:02:53;;;;;;;2.90;2.70;;;22.10;34.70;;;;;;4832242;29;20941;-82
2021/06/30 12:05:20;;;;;;;2.57;2.47;;;22.10;34.80;;;;;;4831387;29;20531;-82
2021/06/30 12:07:47;;;;;;;2.23;2.23;;;22.00;34.90;;;;;;4832146;29;20427;-81
2021/06/30 12:10:15;;;;;;;2.20;2.10;;;22.00;34.80;;;;;;4849089;29;20412;-82
2021/06/30 12:12:54;;;;;;;;;;;;;;;;;;;;;
2021/06/30 12:15:20;;;;;;;2.10;2.00;;;22.00;34.70;;;;;;4847889;29;20439;-84
2021/06/30 12:17:51;;;;;;;2.40;2.30;;;22.00;34.50;;;;;;4848914;29;21057;-85
2021/06/30 12:20:21;;;;;;;2.00;2.00;;;22.00;35.10;;;;;;4832618;29;20175;-82
2021/06/30 12:22:47;;;;;;;2.47;2.27;;;22.00;35.40;;;;;;4831660;29;20980;-84
2021/06/30 12:25:19;;;;;;;4.07;2.20;;;22.00;35.40;;;;;;4830846;29;20479;-83
2021/06/30 12:28:03;;;;;;;2.03;2.03;;;22.00;35.50;;;;;;4831504;29;20512;-84
2021/06/30 12:30:31;;;;;;;2.00;2.00;;;22.00;36.10;;;;;;4832666;29;20432;-84
2021/06/30 12:33:00;;;;;;;7.13;2.83;;;22.00;36.30;;;;;;4832480;29;20424;-83
2021/06/30 12:35:32;;;;;;;5.03;2.60;;;22.00;36.90;;;;;;4831184;29;20561;-81
2021/06/30 12:38:01;;;;;;;5.53;2.40;;;22.10;37.00;;;;;;4848642;29;20971;-82
2021/06/30 12:40:27;;;;;;;2.43;2.27;;;22.10;36.60;;;;;;4848985;29;20412;-84
2021/06/30 12:42:56;;;;;;;2.93;2.70;;;22.10;36.90;;;;;;4846559;29;20423;-84
2021/06/30 12:45:40;;;;;;;3.17;2.87;;;22.10;36.30;;;;;;4831664;29;20448;-82
2021/06/30 12:48:12;;;;;;;2.60;2.37;;;22.10;36.60;;;;;;4832232;29;20458;-82
2021/06/30 12:50:43;;;;;;;2.17;2.10;;;22.10;36.20;;;;;;4849406;29;20911;-81
2021/06/30 12:53:24;;;;;;;4.77;2.40;;;22.10;35.70;;;;;;4849363;29;20823;-81
2021/06/30 12:56:11;;;;;;;3.57;2.60;;;22.00;35.70;;;;;;4848682;29;20592;-82
2021/06/30 12:58:43;;;;;;;2.67;2.57;;;22.00;35.40;;;;;;4849054;29;20514;-81
2021/06/30 13:01:24;;;;;;;3.07;2.77;;;22.00;35.70;;;;;;4831901;29;20793;-83
2021/06/30 13:03:54;;;;;;;2.77;2.33;;;22.10;35.70;;;;;;4848420;29;20436;-83
2021/06/30 13:06:22;;;;;;;2.60;2.50;;;22.10;35.40;;;;;;4831817;29;20543;-85
2021/06/30 13:09:09;;;;;;;2.20;2.10;;;22.00;35.40;;;;;;4832654;29;20429;-82
2021/06/30 13:11:58;;;;;;;3.53;2.67;;;22.00;35.30;;;;;;4846720;29;20446;-81
2021/06/30 13:14:30;;;;;;;2.80;2.60;;;22.00;35.10;;;;;;4820389;29;20488;-82
2021/06/30 13:17:00;;;;;;;2.43;2.33;;;22.00;35.30;;;;;;4829289;29;20475;-80
2021/06/30 13:19:34;;;;;;;2.07;2.07;;;22.00;35.10;;;;;;4847218;29;20496;-80
2021/06/30 13:22:14;;;;;;;2.40;2.27;;;22.00;35.20;;;;;;4830169;29;20432;-80
2021/06/30 13:24:48;;;;;;;2.00;2.00;;;22.00;35.20;;;;;;4846414;29;20416;-82
2021/06/30 13:35:44;;;;;;;2.50;2.40;;;22.10;35.40;;;;;;4847306;29;20439;-84
2021/06/30 13:38:16;;;;;;;1.90;1.90;;;22.10;35.00;;;;;;4848323;29;21026;-82
2021/06/30 13:40:44;;;;;;;2.30;2.30;;;22.10;35.30;;;;;;4849576;29;20789;-83
2021/06/30 13:43:15;;;;;;;2.13;2.10;;;22.10;35.40;;;;;;4849887;29;20412;-83
2021/06/30 13:45:43;;;;;;;2.30;2.20;;;22.10;35.10;;;;;;4831511;29;20446;-83
2021/06/30 13:48:10;;;;;;;2.10;2.00;;;22.10;36.10;;;;;;4832970;29;20500;-84
2021/06/30 13:50:39;;;;;;;2.20;2.10;;;22.10;35.50;;;;;;4832945;29;20477;-82
2021/06/30 13:53:05;;;;;;;2.40;2.30;;;22.10;35.60;;;;;;4849368;29;20424;-82
2021/06/30 13:55:31;;;;;;;2.10;2.00;;;22.10;35.80;;;;;;4847441;29;20444;-84
2021/06/30 13:57:59;;;;;;;2.50;2.30;;;22.10;35.90;;;;;;4832407;29;20475;-83
2021/06/30 14:00:24;;;;;;;2.23;2.23;;;22.10;36.00;;;;;;4832216;29;20465;-83
2021/06/30 14:02:50;;;;;;;2.10;2.00;;;22.10;36.00;;;;;;4831440;29;20843;-82
2021/06/30 14:05:15;;;;;;;2.30;2.20;;;22.10;36.30;;;;;;4836603;29;20208;-83
2021/06/30 14:07:41;;;;;;;2.23;2.13;;;22.10;36.30;;;;;;4828952;29;20191;-84
2021/06/30 14:10:09;;;;;;;2.17;2.07;;;22.10;37.10;;;;;;4813627;29;20279;-84
2021/06/30 14:12:35;;;;;;;2.40;2.30;;;22.10;36.50;;;;;;4813377;29;20536;-85
2021/06/30 14:15:01;;;;;;;2.00;2.00;;;22.10;36.50;;;;;;4812943;29;20448;-82
2021/06/30 14:17:26;;;;;;;2.30;2.20;;;22.10;36.40;;;;;;4830636;29;20558;-82
2021/06/30 14:19:52;;;;;;;3.47;2.47;;;22.10;36.40;;;;;;4814157;29;20184;-84
2021/06/30 14:22:23;;;;;;;2.40;2.30;;;22.10;36.00;;;;;;4829245;29;20188;-83
2021/06/30 14:24:49;;;;;;;2.27;2.27;;;22.00;35.90;;;;;;4830305;29;20194;-84
2021/06/30 14:27:21;;;;;;;2.20;2.10;;;22.10;36.20;;;;;;4814277;29;20540;-83
2021/06/30 14:29:48;;;;;;;2.43;2.33;;;22.00;36.20;;;;;;4829646;29;20210;-83
2021/06/30 14:32:14;;;;;;;2.27;2.17;;;22.00;36.10;;;;;;4828085;29;20493;-84
2021/06/30 14:34:41;;;;;;;2.40;2.30;;;22.00;36.10;;;;;;4825610;29;20464;-81
2021/06/30 14:37:06;;;;;;;2.40;2.30;;;22.10;36.00;;;;;;4827361;29;20207;-84
2021/06/30 14:39:34;;;;;;;2.20;2.07;;;22.00;35.30;;;;;;4827706;29;20427;-84
2021/06/30 14:42:00;;;;;;;2.23;2.07;;;22.00;36.30;;;;;;4827765;29;20168;-83
2021/06/30 14:44:25;;;;;;;2.20;2.20;;;22.00;35.50;;;;;;4826616;29;20426;-82
2021/06/30 14:46:51;;;;;;;3.23;2.17;;;22.00;35.50;;;;;;4827755;29;20208;-83
2021/06/30 14:49:19;;;;;;;2.30;2.20;;;22.00;35.40;;;;;;4810186;29;20564;-83
2021/06/30 14:51:45;;;;;;;2.40;2.30;;;22.00;35.20;;;;;;4826747;29;20218;-82
2021/06/30 14:54:11;;;;;;;2.83;2.40;;;22.10;35.00;;;;;;4825960;29;20822;-81
2021/06/30 14:56:37;;;;;;;2.40;2.30;;;22.00;35.50;;;;;;4826309;29;20461;-83
2021/06/30 14:59:02;;;;;;;2.57;2.47;;;22.10;35.70;;;;;;4809969;29;20188;-81
2021/06/30 15:01:28;;;;;;;2.10;2.00;;;22.10;35.40;;;;;;4825590;29;20240;-82
2021/06/30 15:03:53;;;;;;;2.40;2.30;;;22.10;34.80;;;;;;4809307;29;20241;-82